Portada
METAR-TAF:

METAR-TAF

Aeropuertos :

Aeropuerto de París-Charles de Gaulle

París-Charles De Gaulle, Francia

latitud: 49-01N, longitud: 002-32E, altitud: 118 m

Observación

El informe se hizo hace 37 minutos, a las 15:30 UTC
Viento 9 kt del norte, variando entre norte-noroeste y este
Temperatura 21°C
Humedad 53%
Presión 1018 hPa
Visibilidad 10 km o más
sin nubes por debajo de 1500 m y sin presencia de cumulonimbus.

METAR: LFPG 171530Z 01009KT 340V080 CAVOK 21/11 Q1018 NOSIG

Hora: 18:07 (16:07 UTC)

Pronóstico

El informe se hizo hace 5 horas y 7 minutos, a las 11:00 UTC
Pronóstico válido del 17 a las 12 UTC al 18 a las 18 UTC
Viento 5 kt del norte
Visibilidad 10 km o más
sin nubes por debajo de 1500 m y sin presencia de cumulonimbus.

TAF: LFPG 171100Z 1712/1818 01005KT CAVOK TX22/1715Z TN12/1806Z

Observaciones y pronósticos meteorológicos de más de 4000 aeropuertos (mensajes METAR y TAF).

Los puntos amarillos y rojos representan las estaciones disponibles.

Ponga el ratón en el punto deseado para ver el nombre de la estación.

Haga clic para ver las observaciones y los pronósticos meteorológicos.

Para cambiar el mapa : haga clic en los botones verdes con una cruz de color negro para hacer un zoom, en el botón verde con un guión para alejar o en las flechas verdes para mapas adyacentes.


METAR-TAF: